createdAt,value
2023-03-29T00:01:35.397Z,60.63
2023-03-29T00:04:05.032Z,60.68
2023-03-29T00:06:33.980Z,60.39
2023-03-29T00:09:05.425Z,60.69
2023-03-29T00:11:33.866Z,60.62
2023-03-29T00:14:02.431Z,60.18
2023-03-29T00:16:32.435Z,60.19
2023-03-29T00:19:00.834Z,60.60
2023-03-29T00:21:29.417Z,60.60
2023-03-29T00:23:58.429Z,60.91
2023-03-29T00:26:27.019Z,60.69
2023-03-29T00:28:55.422Z,60.72
2023-03-29T00:31:23.988Z,60.68
2023-03-29T00:33:53.869Z,60.86
2023-03-29T00:36:23.370Z,61.46
2023-03-29T00:38:51.738Z,61.29
2023-03-29T00:41:20.139Z,61.36
2023-03-29T00:43:53.455Z,61.16
2023-03-29T00:46:21.947Z,61.15
2023-03-29T00:48:54.050Z,61.83
2023-03-29T00:51:26.821Z,61.99
2023-03-29T00:53:59.639Z,61.92
2023-03-29T00:56:31.421Z,62.06
2023-03-29T00:59:05.681Z,62.48
2023-03-29T01:01:42.498Z,62.29
2023-03-29T01:04:18.477Z,62.00
2023-03-29T01:06:50.886Z,62.20
2023-03-29T01:09:23.173Z,62.39
2023-03-29T01:11:55.680Z,62.10
2023-03-29T01:14:28.429Z,62.51
2023-03-29T01:16:57.506Z,62.31
2023-03-29T01:19:33.061Z,62.97
2023-03-29T01:22:14.777Z,62.52
2023-03-29T01:24:59.774Z,62.99
2023-03-29T01:27:54.005Z,63.41
2023-03-29T01:30:26.846Z,63.11
2023-03-29T01:32:59.802Z,63.61
2023-03-29T01:35:34.255Z,63.56
2023-03-29T01:38:07.330Z,63.93
2023-03-29T01:40:36.045Z,64.41
2023-03-29T01:43:13.483Z,64.59
2023-03-29T01:45:47.129Z,64.63
2023-03-29T01:48:21.901Z,65.09
2023-03-29T01:50:54.190Z,65.50
2023-03-29T01:53:29.501Z,65.81
2023-03-29T01:56:04.490Z,66.09
2023-03-29T01:58:38.629Z,66.08
2023-03-29T02:01:10.525Z,65.87
2023-03-29T02:03:43.195Z,66.47
2023-03-29T02:06:14.238Z,66.13
2023-03-29T02:08:43.960Z,66.36
2023-03-29T02:11:12.719Z,66.49
2023-03-29T02:13:42.760Z,66.49
2023-03-29T02:16:20.865Z,66.46
2023-03-29T02:18:52.902Z,66.31
2023-03-29T02:21:27.266Z,66.50
2023-03-29T02:23:56.875Z,66.07
2023-03-29T02:26:25.255Z,66.54
2023-03-29T02:28:54.992Z,66.43
2023-03-29T02:31:28.336Z,66.16
2023-03-29T02:34:03.036Z,66.26
2023-03-29T02:36:35.386Z,66.52
2023-03-29T02:39:05.840Z,66.57
2023-03-29T02:41:36.235Z,66.71
2023-03-29T02:44:08.754Z,66.93
2023-03-29T02:46:38.031Z,66.64
2023-03-29T02:49:06.658Z,66.81
2023-03-29T02:51:37.706Z,66.94
2023-03-29T02:54:13.221Z,66.63
2023-03-29T02:56:45.436Z,66.87
2023-03-29T02:59:16.669Z,66.87
2023-03-29T03:01:45.115Z,66.97
2023-03-29T03:04:13.667Z,66.64
2023-03-29T03:06:42.356Z,66.72
2023-03-29T03:09:11.085Z,66.89
2023-03-29T03:11:39.489Z,66.96
2023-03-29T03:14:08.085Z,67.35
2023-03-29T03:16:38.661Z,66.90
2023-03-29T03:19:07.871Z,67.29
2023-03-29T03:21:37.706Z,66.93
2023-03-29T03:24:07.665Z,67.07
2023-03-29T03:26:38.266Z,67.18
2023-03-29T03:29:06.936Z,67.11
2023-03-29T03:31:35.415Z,67.43
2023-03-29T03:34:05.164Z,67.50
2023-03-29T03:36:34.694Z,67.12
2023-03-29T03:39:05.779Z,67.66
2023-03-29T03:41:34.532Z,67.48
2023-03-29T03:44:02.950Z,67.28
2023-03-29T03:46:31.457Z,67.14
2023-03-29T03:49:00.536Z,67.47
2023-03-29T03:51:30.232Z,67.42
2023-03-29T03:53:58.813Z,67.36
2023-03-29T03:56:29.918Z,67.59
2023-03-29T03:58:58.330Z,67.40
2023-03-29T04:01:27.284Z,67.32
2023-03-29T04:04:03.708Z,67.42
2023-03-29T04:06:33.462Z,67.43
2023-03-29T04:09:01.852Z,67.27
2023-03-29T04:11:30.268Z,67.64
2023-03-29T04:13:58.750Z,67.07
2023-03-29T04:16:27.394Z,67.57
2023-03-29T04:18:56.027Z,67.72
2023-03-29T04:21:27.212Z,67.56
2023-03-29T04:23:56.953Z,67.60
2023-03-29T04:26:25.862Z,67.67
2023-03-29T04:28:54.398Z,67.10
2023-03-29T04:31:22.975Z,67.33
2023-03-29T04:33:51.774Z,67.65
2023-03-29T04:36:21.746Z,67.09
2023-03-29T04:38:53.622Z,67.34
2023-03-29T04:41:24.812Z,67.76
2023-03-29T04:43:53.652Z,67.29
2023-03-29T04:46:26.666Z,67.25
2023-03-29T04:48:55.311Z,67.18
2023-03-29T04:51:24.434Z,67.56
2023-03-29T04:53:53.047Z,67.77
2023-03-29T04:56:24.287Z,67.24
2023-03-29T04:58:52.755Z,67.21
2023-03-29T05:01:22.055Z,67.35
2023-03-29T05:03:50.496Z,67.23
2023-03-29T05:06:18.891Z,67.58
2023-03-29T05:08:47.290Z,67.68
2023-03-29T05:11:15.662Z,67.00
2023-03-29T05:13:45.466Z,67.37
2023-03-29T05:16:13.918Z,67.53
2023-03-29T05:18:42.620Z,67.53
2023-03-29T05:21:11.015Z,67.36
2023-03-29T05:23:39.609Z,67.44
2023-03-29T05:26:09.909Z,67.30
2023-03-29T05:28:38.684Z,67.54
2023-03-29T05:31:08.916Z,67.66
2023-03-29T05:33:37.394Z,67.84
2023-03-29T05:36:08.521Z,67.36
2023-03-29T05:38:37.025Z,67.47
2023-03-29T05:41:06.308Z,67.72
2023-03-29T05:43:35.738Z,67.76
2023-03-29T05:46:04.200Z,67.40
2023-03-29T05:48:34.320Z,67.57
2023-03-29T05:51:03.733Z,67.92
2023-03-29T05:53:32.273Z,67.60
2023-03-29T05:56:00.612Z,67.43
2023-03-29T05:58:30.384Z,67.89
2023-03-29T06:01:00.506Z,67.75
2023-03-29T06:03:29.786Z,68.15
2023-03-29T06:06:02.409Z,68.16
2023-03-29T06:08:31.694Z,67.66
2023-03-29T06:11:04.602Z,68.23
2023-03-29T06:13:34.656Z,68.38
2023-03-29T06:16:04.226Z,68.39
2023-03-29T06:18:32.880Z,68.20
2023-03-29T06:21:03.547Z,68.35
2023-03-29T06:23:32.590Z,68.74
2023-03-29T06:26:01.389Z,68.88
2023-03-29T06:28:30.148Z,68.34
2023-03-29T06:31:02.916Z,68.23
2023-03-29T06:33:34.438Z,68.41
2023-03-29T06:36:04.676Z,68.43
2023-03-29T06:38:34.113Z,68.59
2023-03-29T06:41:04.087Z,68.38
2023-03-29T06:43:33.455Z,68.62
2023-03-29T06:46:02.704Z,68.86
2023-03-29T06:48:31.693Z,68.83
2023-03-29T06:51:00.211Z,69.01
2023-03-29T06:53:30.817Z,68.64
2023-03-29T06:55:59.638Z,68.71
2023-03-29T06:58:28.805Z,69.03
2023-03-29T07:01:02.099Z,68.65
2023-03-29T07:03:31.444Z,68.87
2023-03-29T07:06:03.690Z,68.17
2023-03-29T07:08:35.112Z,68.61
2023-03-29T07:11:04.097Z,68.42
2023-03-29T07:13:33.085Z,68.15
2023-03-29T07:16:01.915Z,67.92
2023-03-29T07:18:30.477Z,68.40
2023-03-29T07:20:58.886Z,68.27
2023-03-29T07:23:27.297Z,68.08
2023-03-29T07:25:57.060Z,68.37
2023-03-29T07:28:25.860Z,68.03
2023-03-29T07:30:55.019Z,68.24
2023-03-29T07:33:24.606Z,68.05
2023-03-29T07:35:53.004Z,67.93
2023-03-29T07:38:22.207Z,67.60
2023-03-29T07:40:50.616Z,67.77
2023-03-29T07:43:20.452Z,68.07
2023-03-29T07:45:48.998Z,68.13
2023-03-29T07:48:17.854Z,67.92
2023-03-29T07:50:46.770Z,67.96
2023-03-29T07:53:15.188Z,67.98
2023-03-29T07:55:47.726Z,68.46
2023-03-29T07:58:17.182Z,68.50
2023-03-29T08:00:47.009Z,68.10
2023-03-29T08:03:16.115Z,68.16
2023-03-29T08:05:45.035Z,68.39
2023-03-29T08:08:14.307Z,68.41
2023-03-29T08:10:42.825Z,68.07
2023-03-29T08:13:11.948Z,68.70
2023-03-29T08:15:46.209Z,68.64
2023-03-29T08:18:16.114Z,68.54
2023-03-29T08:20:44.915Z,68.97
2023-03-29T08:23:13.325Z,68.97
2023-03-29T08:25:42.385Z,68.46
2023-03-29T08:28:10.800Z,68.46
2023-03-29T08:30:39.803Z,68.65
2023-03-29T08:33:08.248Z,68.55
2023-03-29T08:35:37.995Z,68.50
2023-03-29T08:38:06.465Z,67.95
2023-03-29T08:40:37.031Z,68.01
2023-03-29T08:43:37.639Z,68.18
2023-03-29T08:46:17.798Z,68.03
2023-03-29T08:48:51.904Z,68.15
2023-03-29T08:51:25.648Z,68.24
2023-03-29T08:53:59.052Z,68.18
2023-03-29T08:56:30.311Z,67.87
2023-03-29T08:59:01.070Z,68.22
2023-03-29T09:01:34.216Z,68.18
2023-03-29T09:04:07.592Z,67.68
2023-03-29T09:06:39.887Z,68.04
2023-03-29T09:09:15.442Z,67.99
2023-03-29T09:11:58.229Z,67.76
2023-03-29T09:14:57.304Z,67.77
2023-03-29T09:17:40.033Z,67.61
2023-03-29T09:20:21.337Z,67.35
2023-03-29T09:23:04.547Z,67.28
2023-03-29T09:25:53.390Z,67.34
2023-03-29T09:28:34.640Z,67.34
2023-03-29T09:31:07.975Z,67.13
2023-03-29T09:33:42.871Z,67.07
2023-03-29T09:36:16.340Z,67.40
2023-03-29T09:38:54.024Z,67.43
2023-03-29T09:41:26.854Z,67.67
2023-03-29T09:43:58.976Z,67.88
2023-03-29T09:46:30.767Z,67.69
2023-03-29T09:48:59.337Z,67.96
2023-03-29T09:51:30.998Z,67.70
2023-03-29T09:54:01.162Z,67.87
2023-03-29T09:56:31.230Z,67.68
2023-03-29T09:58:59.576Z,67.43
2023-03-29T10:01:37.233Z,67.41
2023-03-29T10:04:08.206Z,67.41
2023-03-29T10:06:39.032Z,67.24
2023-03-29T10:09:16.514Z,67.40
2023-03-29T10:11:49.337Z,67.17
2023-03-29T10:14:20.516Z,67.38
2023-03-29T10:16:57.202Z,67.01
2023-03-29T10:19:30.346Z,66.77
2023-03-29T10:22:01.676Z,66.63
2023-03-29T10:24:31.841Z,66.68
2023-03-29T10:27:03.382Z,66.55
2023-03-29T10:29:38.179Z,66.13
2023-03-29T10:32:15.757Z,66.43
2023-03-29T10:34:44.837Z,66.44
2023-03-29T10:37:16.581Z,66.37
2023-03-29T10:39:47.577Z,66.40
2023-03-29T10:42:18.349Z,66.55
2023-03-29T10:44:55.114Z,66.25
2023-03-29T10:47:25.947Z,66.15
2023-03-29T10:49:57.288Z,66.45
2023-03-29T10:52:27.988Z,66.62
2023-03-29T10:55:00.035Z,66.59
2023-03-29T10:57:38.675Z,66.09
2023-03-29T11:00:16.787Z,65.48
2023-03-29T11:03:22.374Z,65.47
2023-03-29T11:05:57.361Z,65.64
2023-03-29T11:08:43.539Z,66.03
2023-03-29T11:11:28.831Z,65.68
2023-03-29T11:14:02.803Z,65.76
2023-03-29T11:16:40.102Z,65.66
2023-03-29T11:19:47.179Z,65.78
2023-03-29T11:22:20.634Z,65.45
2023-03-29T11:24:59.557Z,64.98
2023-03-29T11:27:38.592Z,64.78
2023-03-29T11:30:18.705Z,64.70
2023-03-29T11:32:56.164Z,64.71
2023-03-29T11:35:37.923Z,64.90
2023-03-29T11:38:14.857Z,65.02
2023-03-29T11:40:54.202Z,64.72
2023-03-29T11:43:29.268Z,64.79
2023-03-29T11:46:03.115Z,64.17
2023-03-29T11:48:36.552Z,64.42
2023-03-29T11:51:11.305Z,64.86
2023-03-29T11:53:46.933Z,64.50
2023-03-29T11:56:21.220Z,64.64
2023-03-29T11:58:58.878Z,64.38
2023-03-29T12:01:34.635Z,64.44
2023-03-29T12:04:08.638Z,64.89
2023-03-29T12:06:43.142Z,64.71
2023-03-29T12:09:22.676Z,64.21
2023-03-29T12:11:57.712Z,64.08
2023-03-29T12:14:31.427Z,64.43
2023-03-29T12:17:03.329Z,64.98
2023-03-29T12:19:40.958Z,65.05
2023-03-29T12:22:10.650Z,65.21
2023-03-29T12:24:44.321Z,64.56
2023-03-29T12:27:24.086Z,64.28
2023-03-29T12:30:22.013Z,64.06
2023-03-29T12:33:07.362Z,64.46
2023-03-29T12:35:44.946Z,64.09
2023-03-29T12:38:19.728Z,63.76
2023-03-29T12:40:55.152Z,63.70
2023-03-29T12:43:27.838Z,63.63
2023-03-29T12:46:06.413Z,63.55
2023-03-29T12:48:38.267Z,62.95
2023-03-29T12:51:13.388Z,63.04
2023-03-29T12:53:45.467Z,62.82
2023-03-29T12:56:17.340Z,62.77
2023-03-29T12:58:56.847Z,62.85
2023-03-29T13:01:31.386Z,62.69
2023-03-29T13:04:20.436Z,62.92
2023-03-29T13:07:03.179Z,63.00
2023-03-29T13:09:35.665Z,62.81
2023-03-29T13:12:22.843Z,62.68
2023-03-29T13:14:54.111Z,62.77
2023-03-29T13:17:29.093Z,62.52
2023-03-29T13:20:23.557Z,62.56
2023-03-29T13:23:03.390Z,62.31
2023-03-29T13:25:48.138Z,61.90
2023-03-29T13:28:23.917Z,62.00
2023-03-29T13:31:00.227Z,61.79
2023-03-29T13:33:57.183Z,61.28
2023-03-29T13:36:39.494Z,61.44
2023-03-29T13:39:15.309Z,61.44
2023-03-29T13:41:52.212Z,61.33
2023-03-29T13:44:30.233Z,61.44
2023-03-29T13:47:17.507Z,61.54
2023-03-29T13:49:53.542Z,61.94
2023-03-29T13:52:28.869Z,61.83
2023-03-29T13:55:01.266Z,61.80
2023-03-29T13:57:37.558Z,61.76
2023-03-29T14:00:16.162Z,61.91
2023-03-29T14:02:49.445Z,62.05
2023-03-29T14:05:24.454Z,61.81
2023-03-29T14:07:55.595Z,61.81
2023-03-29T14:10:28.616Z,62.06
2023-03-29T14:13:04.474Z,61.76
2023-03-29T14:15:44.277Z,61.64
2023-03-29T14:18:16.474Z,61.94
2023-03-29T14:20:49.071Z,61.97
2023-03-29T14:23:22.491Z,62.13
2023-03-29T14:25:51.512Z,62.07
2023-03-29T14:28:25.175Z,62.38
2023-03-29T14:30:53.962Z,62.29
2023-03-29T14:33:28.276Z,62.47
2023-03-29T14:36:00.917Z,62.08
2023-03-29T14:38:31.460Z,62.37
2023-03-29T14:41:01.418Z,62.29
2023-03-29T14:43:32.417Z,62.03
2023-03-29T14:46:03.711Z,62.46
2023-03-29T14:48:33.872Z,62.40
2023-03-29T14:51:04.145Z,61.96
2023-03-29T14:53:34.532Z,61.96
2023-03-29T14:56:03.370Z,61.73
2023-03-29T14:58:34.904Z,61.92
2023-03-29T15:01:07.928Z,61.30
2023-03-29T15:03:44.607Z,60.99
2023-03-29T15:06:15.821Z,60.71
2023-03-29T15:08:58.071Z,60.41
2023-03-29T15:11:32.919Z,60.23
2023-03-29T15:14:05.090Z,60.41
2023-03-29T15:16:34.447Z,60.84
2023-03-29T15:19:03.343Z,61.16
2023-03-29T15:21:35.803Z,61.47
2023-03-29T15:24:05.579Z,61.71
2023-03-29T15:26:37.669Z,61.97
2023-03-29T15:29:11.412Z,62.33
2023-03-29T15:31:41.854Z,62.63
2023-03-29T15:34:14.257Z,62.61
2023-03-29T15:36:46.443Z,62.71
2023-03-29T15:39:17.099Z,62.93
2023-03-29T15:41:47.933Z,62.99
2023-03-29T15:44:18.544Z,63.37
2023-03-29T15:46:47.327Z,63.27
2023-03-29T15:49:16.023Z,62.76
2023-03-29T15:51:46.064Z,62.94
2023-03-29T15:54:24.471Z,63.22
2023-03-29T15:56:55.247Z,63.58
2023-03-29T15:59:24.234Z,64.04
2023-03-29T16:01:54.500Z,64.50
2023-03-29T16:04:23.407Z,64.60
2023-03-29T16:06:55.656Z,65.00
2023-03-29T16:09:25.974Z,65.22
2023-03-29T16:11:54.400Z,65.67
2023-03-29T16:14:25.372Z,66.48
2023-03-29T16:16:55.487Z,66.31
2023-03-29T16:19:24.266Z,66.84
2023-03-29T16:21:54.723Z,67.13
2023-03-29T16:24:25.328Z,67.02
2023-03-29T16:26:55.606Z,67.59
2023-03-29T16:29:24.845Z,68.05
2023-03-29T16:31:53.711Z,68.22
2023-03-29T16:34:23.101Z,68.88
2023-03-29T16:36:52.976Z,69.54
2023-03-29T16:39:22.853Z,69.70
2023-03-29T16:41:51.452Z,70.00
2023-03-29T16:44:23.937Z,69.82
2023-03-29T16:46:53.822Z,70.60
2023-03-29T16:49:24.326Z,70.41
2023-03-29T16:51:53.228Z,71.00
2023-03-29T16:54:25.756Z,71.10
2023-03-29T16:56:54.323Z,71.72
2023-03-29T16:59:23.042Z,71.41
2023-03-29T17:01:51.664Z,71.56
2023-03-29T17:04:20.061Z,71.43
2023-03-29T17:06:48.663Z,71.50
2023-03-29T17:09:17.613Z,72.23
2023-03-29T17:11:47.471Z,71.95
2023-03-29T17:14:16.463Z,72.21
2023-03-29T17:16:44.989Z,72.72
2023-03-29T17:19:13.692Z,72.77
2023-03-29T17:21:42.213Z,72.52
2023-03-29T17:24:10.909Z,73.09
2023-03-29T17:26:39.829Z,73.06
2023-03-29T17:29:09.618Z,72.82
2023-03-29T17:31:45.044Z,73.39
2023-03-29T17:34:13.775Z,72.95
2023-03-29T17:36:42.237Z,73.22
2023-03-29T17:39:11.122Z,73.06
2023-03-29T17:41:39.747Z,73.37
2023-03-29T17:44:09.703Z,73.59
2023-03-29T17:46:38.687Z,73.51
2023-03-29T17:49:07.478Z,74.30
2023-03-29T17:51:35.910Z,73.83
2023-03-29T17:54:04.360Z,74.38
2023-03-29T17:56:33.230Z,74.39
2023-03-29T17:59:01.899Z,74.02
2023-03-29T18:01:33.357Z,74.42
2023-03-29T18:04:01.816Z,74.93
2023-03-29T18:06:32.473Z,74.68
2023-03-29T18:09:01.684Z,74.54
2023-03-29T18:11:33.035Z,74.75
2023-03-29T18:14:02.019Z,74.71
2023-03-29T18:16:32.209Z,74.73
2023-03-29T18:19:00.689Z,74.69
2023-03-29T18:21:29.134Z,74.96
2023-03-29T18:23:57.586Z,74.63
2023-03-29T18:26:26.101Z,74.51
2023-03-29T18:28:54.538Z,74.74
2023-03-29T18:31:22.987Z,74.47
2023-03-29T18:33:53.054Z,74.64
2023-03-29T18:36:21.620Z,74.88
2023-03-29T18:38:50.481Z,75.06
2023-03-29T18:41:24.624Z,75.33
2023-03-29T18:43:57.250Z,75.01
2023-03-29T18:46:33.658Z,75.15
2023-03-29T18:49:03.846Z,75.10
2023-03-29T18:51:32.967Z,75.80
2023-03-29T18:54:01.515Z,75.56
2023-03-29T18:56:30.161Z,75.65
2023-03-29T18:58:58.594Z,75.67
2023-03-29T19:01:27.180Z,75.92
2023-03-29T19:03:55.620Z,75.96
2023-03-29T19:06:26.060Z,76.03
2023-03-29T19:08:55.381Z,75.94
2023-03-29T19:11:23.788Z,75.95
2023-03-29T19:13:52.313Z,76.25
2023-03-29T19:16:20.807Z,76.03
2023-03-29T19:18:49.218Z,75.90
2023-03-29T19:21:17.800Z,76.12
2023-03-29T19:23:47.609Z,76.31
2023-03-29T19:26:16.449Z,76.22
2023-03-29T19:28:45.050Z,76.16
2023-03-29T19:31:13.495Z,76.00
2023-03-29T19:33:42.068Z,76.41
2023-03-29T19:36:10.931Z,76.25
2023-03-29T19:38:39.461Z,76.16
2023-03-29T19:41:09.380Z,76.21
2023-03-29T19:43:37.845Z,75.92
2023-03-29T19:46:09.466Z,76.06
2023-03-29T19:48:38.708Z,76.04
2023-03-29T19:51:07.996Z,76.25
2023-03-29T19:53:38.725Z,76.39
2023-03-29T19:56:11.168Z,76.25
2023-03-29T19:58:39.699Z,75.95
2023-03-29T20:01:08.140Z,75.55
2023-03-29T20:03:36.795Z,76.07
2023-03-29T20:06:05.568Z,76.04
2023-03-29T20:08:37.880Z,75.92
2023-03-29T20:11:10.200Z,75.64
2023-03-29T20:13:43.739Z,74.99
2023-03-29T20:16:15.024Z,75.66
2023-03-29T20:18:44.935Z,75.29
2023-03-29T20:21:16.556Z,75.27
2023-03-29T20:23:45.945Z,75.60
2023-03-29T20:26:15.409Z,75.53
2023-03-29T20:28:45.795Z,75.50
2023-03-29T20:31:14.429Z,75.63
2023-03-29T20:33:44.408Z,75.37
2023-03-29T20:36:13.502Z,75.64
2023-03-29T20:38:41.950Z,75.76
2023-03-29T20:41:10.858Z,75.47
2023-03-29T20:43:40.964Z,75.33
2023-03-29T20:46:18.254Z,75.48
2023-03-29T20:48:53.425Z,75.47
2023-03-29T20:51:22.768Z,75.20
2023-03-29T20:53:51.190Z,75.55
2023-03-29T20:56:20.973Z,75.61
2023-03-29T20:58:49.576Z,75.19
2023-03-29T21:01:21.776Z,75.33
2023-03-29T21:03:55.042Z,74.93
2023-03-29T21:06:24.365Z,75.65
2023-03-29T21:08:53.490Z,75.43
2023-03-29T21:11:22.064Z,75.49
2023-03-29T21:13:52.836Z,75.99
2023-03-29T21:16:22.717Z,75.92
2023-03-29T21:18:51.208Z,76.39
2023-03-29T21:21:19.587Z,76.27
2023-03-29T21:23:47.954Z,75.78
2023-03-29T21:26:16.419Z,76.42
2023-03-29T21:28:44.855Z,76.24
2023-03-29T21:31:13.209Z,76.85
2023-03-29T21:33:42.949Z,76.61
2023-03-29T21:36:11.467Z,76.87
2023-03-29T21:38:40.397Z,77.09
2023-03-29T21:41:12.073Z,76.76
2023-03-29T21:43:40.540Z,77.21
2023-03-29T21:46:09.614Z,77.01
2023-03-29T21:48:38.375Z,77.35
2023-03-29T21:51:09.256Z,77.39
2023-03-29T21:53:37.706Z,77.56
2023-03-29T21:56:08.412Z,77.06
2023-03-29T21:58:36.832Z,77.80
2023-03-29T22:01:07.429Z,77.43
2023-03-29T22:03:35.924Z,77.26
2023-03-29T22:06:07.978Z,77.26
2023-03-29T22:08:39.807Z,77.04
2023-03-29T22:11:10.884Z,77.60
2023-03-29T22:13:39.864Z,77.60
2023-03-29T22:16:09.373Z,77.42
2023-03-29T22:18:46.800Z,77.17
2023-03-29T22:21:17.491Z,77.20
2023-03-29T22:23:49.380Z,77.35
2023-03-29T22:26:19.887Z,76.86
2023-03-29T22:28:48.478Z,77.30
2023-03-29T22:31:19.324Z,76.75
2023-03-29T22:33:47.874Z,77.12
2023-03-29T22:36:18.075Z,77.14
2023-03-29T22:38:48.338Z,77.19
2023-03-29T22:41:18.396Z,76.82
2023-03-29T22:43:46.818Z,77.17
2023-03-29T22:46:15.500Z,77.58
2023-03-29T22:48:43.910Z,77.58
2023-03-29T22:51:12.251Z,77.42
2023-03-29T22:53:40.814Z,77.34
2023-03-29T22:56:10.869Z,76.95
2023-03-29T22:58:39.205Z,77.39
2023-03-29T23:01:08.752Z,77.27
2023-03-29T23:03:37.807Z,77.09
2023-03-29T23:06:07.063Z,77.23
2023-03-29T23:08:38.063Z,76.81
2023-03-29T23:11:07.322Z,77.25
2023-03-29T23:13:37.460Z,76.74
2023-03-29T23:16:06.444Z,76.92
2023-03-29T23:18:42.773Z,76.75
2023-03-29T23:21:11.166Z,77.27
2023-03-29T23:23:40.079Z,76.92
2023-03-29T23:26:10.361Z,76.85
2023-03-29T23:28:41.042Z,77.07
2023-03-29T23:31:11.799Z,76.90
2023-03-29T23:33:42.727Z,76.98
2023-03-29T23:36:13.316Z,77.16
2023-03-29T23:38:43.372Z,77.34
2023-03-29T23:41:13.220Z,77.17
2023-03-29T23:43:44.831Z,77.28
2023-03-29T23:46:15.255Z,77.37
2023-03-29T23:48:47.125Z,77.29
2023-03-29T23:51:18.097Z,77.60
2023-03-29T23:53:48.448Z,77.29
2023-03-29T23:56:16.854Z,77.48
2023-03-29T23:58:46.746Z,77.30
